Terminal Aerodrome Forecast
Issued by NWS Sterling, VA

Current Version | Previous Version | Graphics & Text | Print | Product List | Glossary On
Versions: 1 2 3 4 5 6 7 8 9 10 11 12 13 14 15 16 17 18 19 20 21 22 23 24 25 26 27
000
FTUS41 KLWX 261929 AAA
TAFIAD
TAF AMD
KIAD 261929Z 2619/2724 25013G21KT P6SM SCT060 BKN250
     FM262100 28012G20KT P6SM -TSRA BKN060CB
     FM262300 28008KT P6SM -TSRA BKN060CB
     FM270000 29010KT P6SM -SHRA VCTS BKN070CB
     FM270200 28007KT P6SM BKN070
     FM270700 03009KT P6SM BKN030
     FM271600 03005KT P6SM OVC025
     FM272000 10005KT P6SM BKN025=

USA.gov is the U.S. government's official web portal to all federal, state and local government web resources and services.